Time;durP1;ratioP1;P1;durP2;ratioP2;P2;SDS_P1;SDS_P2;PMS_P1;PMS_P2;Temp;Humidity;BMP_temperature;BMP_pressure;BME280_temperature;BME280_humidity;BME280_pressure;Samples;Min_cycle;Max_cycle;Signal;HPM_P1;HPM_P2
2022/04/28 00:00:59;;;;;;;9.48;6.00;;;22.40;47.80;;;;;;4952281;29;20046;-73
2022/04/28 00:03:25;;;;;;;10.88;6.05;;;22.40;47.80;;;;;;4951521;29;20507;-73
2022/04/28 00:05:51;;;;;;;11.25;6.10;;;22.40;47.80;;;;;;4951875;29;20500;-73
2022/04/28 00:08:17;;;;;;;10.75;6.10;;;22.40;47.80;;;;;;4953261;28;20034;-73
2022/04/28 00:10:43;;;;;;;10.52;5.78;;;22.40;47.80;;;;;;4952931;29;20035;-73
2022/04/28 00:13:10;;;;;;;11.45;6.07;;;22.50;47.80;;;;;;4935762;29;20106;-74
2022/04/28 00:15:36;;;;;;;9.75;5.47;;;22.40;47.70;;;;;;4953072;28;20086;-74
2022/04/28 00:18:02;;;;;;;8.65;5.40;;;22.40;47.80;;;;;;4952946;28;20035;-74
2022/04/28 00:20:27;;;;;;;9.80;5.50;;;22.40;47.80;;;;;;4951571;29;20392;-73
2022/04/28 00:22:53;;;;;;;9.45;5.60;;;22.40;47.80;;;;;;4952965;29;20054;-73
2022/04/28 00:25:21;;;;;;;8.38;5.25;;;22.40;47.80;;;;;;4952677;29;20424;-73
2022/04/28 00:27:47;;;;;;;8.55;5.28;;;22.40;47.80;;;;;;4953104;29;20034;-74
2022/04/28 00:30:12;;;;;;;11.23;5.93;;;22.40;47.90;;;;;;4952831;29;20023;-74
2022/04/28 00:32:38;;;;;;;8.43;5.05;;;22.40;47.90;;;;;;4952875;29;20115;-73
2022/04/28 00:35:04;;;;;;;8.57;5.35;;;22.40;47.90;;;;;;4951509;29;20057;-73
2022/04/28 00:37:30;;;;;;;9.65;5.78;;;22.40;47.90;;;;;;4951686;29;20038;-73
2022/04/28 00:39:56;;;;;;;8.25;5.07;;;22.40;47.90;;;;;;4935596;29;20181;-73
2022/04/28 00:42:22;;;;;;;9.82;6.00;;;22.40;47.90;;;;;;4951868;29;20118;-73
2022/04/28 00:44:47;;;;;;;9.77;5.97;;;22.40;47.90;;;;;;4951507;28;20035;-74
2022/04/28 00:47:13;;;;;;;8.70;5.68;;;22.40;47.90;;;;;;4952945;29;20027;-73
2022/04/28 00:52:24;;;;;;;8.82;5.05;;;22.40;47.90;;;;;;4952154;29;20023;-74
2022/04/28 00:54:54;;;;;;;9.30;5.53;;;22.40;47.90;;;;;;4951107;29;20027;-73
2022/04/28 00:57:21;;;;;;;;;;;22.40;47.90;;;;;;4952073;29;20387;-74
2022/04/28 00:59:48;;;;;;;8.35;5.25;;;22.40;47.90;;;;;;4951390;29;19917;-73
2022/04/28 01:02:16;;;;;;;9.23;5.47;;;22.40;47.90;;;;;;4951418;29;20090;-73
2022/04/28 01:04:42;;;;;;;9.77;5.68;;;22.40;47.90;;;;;;4938786;29;20484;-74
2022/04/28 01:07:08;;;;;;;8.48;5.00;;;22.40;47.90;;;;;;4939403;29;20038;-73
2022/04/28 01:09:37;;;;;;;9.77;5.65;;;22.40;47.90;;;;;;4939374;29;20126;-73
2022/04/28 01:12:14;;;;;;;8.45;5.10;;;22.40;47.90;;;;;;4939399;29;20031;-73
2022/04/28 01:14:45;;;;;;;9.50;5.10;;;22.40;47.90;;;;;;4954925;29;20110;-74
2022/04/28 01:17:12;;;;;;;9.93;5.78;;;22.40;47.90;;;;;;4955054;29;20452;-73
2022/04/28 01:19:41;;;;;;;7.90;4.78;;;22.40;47.90;;;;;;4954917;29;20603;-73
2022/04/28 01:22:07;;;;;;;8.15;5.03;;;22.40;47.90;;;;;;4954926;29;20114;-73
2022/04/28 01:24:36;;;;;;;8.02;4.95;;;22.40;47.90;;;;;;4938746;29;20034;-73
2022/04/28 01:27:03;;;;;;;7.93;4.93;;;22.40;47.90;;;;;;4939365;29;20031;-73
2022/04/28 01:29:33;;;;;;;6.72;4.65;;;22.40;47.90;;;;;;4955211;29;20444;-74
2022/04/28 01:31:59;;;;;;;7.90;4.75;;;22.40;47.90;;;;;;4954707;29;20031;-73
2022/04/28 01:34:26;;;;;;;7.40;4.80;;;22.40;48.00;;;;;;4938609;29;20035;-73
2022/04/28 01:36:52;;;;;;;8.55;5.10;;;22.40;48.00;;;;;;4954691;29;20034;-73
2022/04/28 01:39:18;;;;;;;9.05;5.05;;;22.40;48.00;;;;;;4954536;29;20551;-74
2022/04/28 01:41:47;;;;;;;8.43;5.03;;;22.40;48.00;;;;;;4954824;29;20027;-73
2022/04/28 01:44:13;;;;;;;8.43;4.82;;;22.40;48.00;;;;;;4954119;29;20408;-73
2022/04/28 01:46:39;;;;;;;9.57;4.95;;;22.40;48.00;;;;;;4954502;29;20027;-73
2022/04/28 01:49:17;;;;;;;7.00;4.60;;;22.40;48.10;;;;;;4955685;29;20504;-74
2022/04/28 01:54:57;;;;;;;7.97;4.90;;;22.40;48.00;;;;;;4953781;29;20480;-73
2022/04/28 01:57:29;;;;;;;8.30;4.70;;;22.40;48.00;;;;;;4954642;29;20179;-73
2022/04/28 02:00:16;;;;;;;8.15;4.85;;;22.40;48.00;;;;;;4951319;28;20047;-73
2022/04/28 02:02:49;;;;;;;6.97;4.70;;;22.40;48.00;;;;;;4953927;29;20102;-73
2022/04/28 02:05:16;;;;;;;7.22;4.18;;;22.40;48.10;;;;;;4938217;29;20444;-73
2022/04/28 02:07:42;;;;;;;8.07;4.57;;;22.40;48.00;;;;;;4954502;29;20030;-73
2022/04/28 02:10:08;;;;;;;7.18;4.70;;;22.40;48.00;;;;;;4953768;29;20029;-73
2022/04/28 02:12:35;;;;;;;8.35;4.40;;;22.40;48.10;;;;;;4954006;29;20499;-73
2022/04/28 02:15:19;;;;;;;8.68;4.85;;;22.40;48.10;;;;;;4953303;28;20480;-74
2022/04/28 02:17:51;;;;;;;7.88;4.50;;;22.40;48.10;;;;;;4954371;29;20118;-73
2022/04/28 02:20:18;;;;;;;6.22;4.10;;;22.40;48.00;;;;;;4953421;29;20045;-73
2022/04/28 02:22:44;;;;;;;7.88;4.57;;;22.40;48.00;;;;;;4953859;29;20031;-73
2022/04/28 02:25:11;;;;;;;7.65;4.55;;;22.40;48.10;;;;;;4953549;29;20027;-73
2022/04/28 02:27:37;;;;;;;7.80;4.28;;;22.40;48.00;;;;;;4953960;29;20031;-73
2022/04/28 02:30:04;;;;;;;7.28;4.82;;;22.40;48.00;;;;;;4954623;29;20755;-74
2022/04/28 02:33:08;;;;;;;7.78;4.60;;;22.40;48.00;;;;;;4953644;29;20040;-73
2022/04/28 02:35:19;;;;;;;7.13;4.38;;;22.40;48.00;;;;;;4953273;29;20039;-73
2022/04/28 02:37:46;;;;;;;7.25;4.18;;;22.40;48.00;;;;;;4953619;29;20079;-74
2022/04/28 02:40:12;;;;;;;7.30;4.03;;;22.40;48.10;;;;;;4937652;29;20039;-73
2022/04/28 02:42:38;;;;;;;8.45;4.53;;;22.40;48.00;;;;;;4953579;29;20032;-73
2022/04/28 02:45:04;;;;;;;7.95;4.35;;;22.40;48.10;;;;;;4937104;29;20039;-73
2022/04/28 02:47:30;;;;;;;7.25;4.05;;;22.40;48.10;;;;;;4953657;29;20035;-74
2022/04/28 02:49:56;;;;;;;7.47;4.20;;;22.40;48.10;;;;;;4953048;29;20031;-74
2022/04/28 02:52:22;;;;;;;6.00;4.07;;;22.40;48.10;;;;;;4953349;29;20031;-74
2022/04/28 02:54:50;;;;;;;6.82;4.10;;;22.40;48.10;;;;;;4937381;29;20145;-73
2022/04/28 02:57:16;;;;;;;6.90;4.30;;;22.40;48.10;;;;;;4937427;29;20063;-73
2022/04/28 02:59:43;;;;;;;7.43;4.50;;;22.40;48.10;;;;;;4937283;29;20036;-73
2022/04/28 03:02:09;;;;;;;7.07;4.10;;;22.40;48.10;;;;;;4953048;29;20027;-74
2022/04/28 03:04:35;;;;;;;6.50;3.92;;;22.40;48.10;;;;;;4952587;29;20508;-74
2022/04/28 03:12:35;;;;;;;5.68;3.90;;;22.40;48.10;;;;;;4917825;29;20035;-74
2022/04/28 03:15:10;;;;;;;7.18;4.15;;;22.40;48.70;;;;;;4937771;29;20125;-74
2022/04/28 03:17:37;;;;;;;5.97;3.60;;;22.40;48.10;;;;;;4952974;29;20055;-73
2022/04/28 03:20:04;;;;;;;6.25;4.00;;;22.40;48.10;;;;;;4952507;29;20035;-74
2022/04/28 03:22:30;;;;;;;6.10;4.00;;;22.40;48.10;;;;;;4953976;29;20043;-74
2022/04/28 03:24:56;;;;;;;7.30;4.00;;;22.40;48.10;;;;;;4952221;29;20086;-74
2022/04/28 03:27:22;;;;;;;6.30;4.18;;;22.40;48.10;;;;;;4952613;28;20480;-74
2022/04/28 03:29:49;;;;;;;6.75;4.00;;;22.30;48.10;;;;;;4952585;29;20381;-74
2022/04/28 03:32:15;;;;;;;6.78;3.90;;;22.40;48.10;;;;;;4921034;29;20030;-74
2022/04/28 03:34:46;;;;;;;7.15;4.13;;;22.40;48.10;;;;;;4952107;29;20037;-74
2022/04/28 03:37:12;;;;;;;6.47;4.00;;;22.40;48.10;;;;;;4936655;29;20396;-74
2022/04/28 03:39:41;;;;;;;5.57;3.80;;;22.40;48.10;;;;;;4952623;29;20027;-74
2022/04/28 03:42:08;;;;;;;6.35;3.90;;;22.40;48.10;;;;;;4952067;29;20070;-74
2022/04/28 03:44:34;;;;;;;6.80;3.80;;;22.40;48.10;;;;;;4952287;29;20023;-74
2022/04/28 03:47:01;;;;;;;6.70;3.95;;;22.40;48.10;;;;;;4952119;29;20499;-74
2022/04/28 03:49:27;;;;;;;6.68;3.78;;;22.40;48.10;;;;;;4952075;29;20031;-74
2022/04/28 03:51:54;;;;;;;4.90;3.47;;;22.40;48.10;;;;;;4952436;29;20033;-74
2022/04/28 03:54:20;;;;;;;5.90;3.50;;;22.40;48.10;;;;;;4936012;29;20488;-73
2022/04/28 03:56:46;;;;;;;5.97;3.63;;;22.40;48.10;;;;;;4936102;29;20039;-73
2022/04/28 03:59:12;;;;;;;5.97;3.60;;;22.30;48.10;;;;;;4952285;29;20477;-73
2022/04/28 04:01:52;;;;;;;5.40;3.45;;;22.40;48.20;;;;;;4935872;29;20404;-73
2022/04/28 04:04:18;;;;;;;5.53;3.30;;;22.40;48.10;;;;;;4951928;29;20043;-73
2022/04/28 04:06:50;;;;;;;6.88;3.88;;;22.40;48.20;;;;;;4936537;29;20465;-73
2022/04/28 04:09:34;;;;;;;4.97;3.15;;;22.40;48.10;;;;;;4952138;29;20077;-73
2022/04/28 04:12:00;;;;;;;5.53;3.45;;;22.40;48.10;;;;;;4951844;29;20031;-73
2022/04/28 04:14:37;;;;;;;6.43;3.63;;;22.30;48.10;;;;;;4951995;29;20167;-73
2022/04/28 04:17:03;;;;;;;6.28;3.50;;;22.30;48.10;;;;;;4936029;29;20042;-73
2022/04/28 04:19:33;;;;;;;4.82;3.30;;;22.30;48.10;;;;;;4951937;29;20489;-74
2022/04/28 04:21:59;;;;;;;7.07;3.67;;;22.40;48.20;;;;;;4951541;29;20099;-73
2022/04/28 04:24:27;;;;;;;6.30;3.63;;;22.30;48.10;;;;;;4935883;29;20035;-73
2022/04/28 04:26:53;;;;;;;7.07;3.83;;;22.40;48.20;;;;;;4935566;29;20078;-73
2022/04/28 04:29:38;;;;;;;4.75;3.08;;;22.40;48.70;;;;;;4951979;29;20031;-73
2022/04/28 04:32:26;;;;;;;6.40;3.72;;;22.40;48.10;;;;;;4951703;29;20392;-74
2022/04/28 04:34:55;;;;;;;4.60;3.42;;;22.40;48.10;;;;;;4952658;29;20042;-73
2022/04/28 04:37:26;;;;;;;5.82;3.55;;;22.40;48.10;;;;;;4951796;28;20019;-73
2022/04/28 04:39:52;;;;;;;6.38;3.78;;;22.40;48.10;;;;;;4939908;29;20560;-73
2022/04/28 04:42:18;;;;;;;5.55;3.70;;;22.40;48.10;;;;;;4939872;29;20034;-73
2022/04/28 04:44:44;;;;;;;6.25;3.53;;;22.40;48.10;;;;;;4955165;29;20110;-73
2022/04/28 04:47:14;;;;;;;5.65;3.50;;;22.40;48.10;;;;;;4940195;29;20102;-74
2022/04/28 04:49:58;;;;;;;5.93;3.25;;;22.40;48.10;;;;;;4956670;28;20035;-74
2022/04/28 04:52:38;;;;;;;6.97;4.03;;;22.30;48.10;;;;;;4955696;29;20447;-73
2022/04/28 04:55:07;;;;;;;6.03;3.80;;;22.40;48.10;;;;;;4955021;29;20085;-73
2022/04/28 04:57:37;;;;;;;6.10;3.42;;;22.30;48.00;;;;;;4955420;29;20111;-73
2022/04/28 05:00:05;;;;;;;6.32;3.72;;;22.30;48.10;;;;;;4955402;29;20525;-73
2022/04/28 05:02:41;;;;;;;6.10;3.42;;;22.40;48.10;;;;;;4939543;29;20567;-73
2022/04/28 05:05:33;;;;;;;5.82;3.70;;;22.40;48.10;;;;;;4954825;29;20408;-73
2022/04/28 05:08:09;;;;;;;6.90;3.65;;;22.40;48.10;;;;;;4955318;29;20102;-73
2022/04/28 05:10:40;;;;;;;5.82;3.75;;;22.40;48.70;;;;;;4939568;29;20023;-73
2022/04/28 05:13:05;;;;;;;5.40;3.60;;;22.30;48.10;;;;;;4954955;29;20034;-73
2022/04/28 05:15:37;;;;;;;6.47;3.80;;;22.40;48.10;;;;;;4955192;29;20129;-73
2022/04/28 05:18:17;;;;;;;6.90;3.50;;;22.40;48.10;;;;;;4955383;29;20031;-73
2022/04/28 05:20:52;;;;;;;5.25;3.42;;;22.40;48.10;;;;;;4956108;28;20039;-73
2022/04/28 05:23:37;;;;;;;4.93;3.08;;;22.40;48.10;;;;;;4955249;29;20392;-73
2022/04/28 05:26:21;;;;;;;5.95;3.72;;;22.40;48.10;;;;;;4956069;28;20057;-73
2022/04/28 05:28:59;;;;;;;5.65;3.53;;;22.40;48.10;;;;;;4956668;29;20020;-73
2022/04/28 05:31:52;;;;;;;5.40;3.45;;;22.40;48.10;;;;;;4954709;29;20031;-73
2022/04/28 05:34:35;;;;;;;7.15;3.78;;;22.40;48.20;;;;;;4954555;29;20031;-73
2022/04/28 05:37:14;;;;;;;7.80;3.72;;;22.30;48.10;;;;;;4956037;29;20019;-73
2022/04/28 05:39:42;;;;;;;5.72;3.60;;;22.40;48.10;;;;;;4954931;29;20031;-73
2022/04/28 05:42:09;;;;;;;5.95;3.47;;;22.40;48.20;;;;;;4954635;29;20038;-73
2022/04/28 05:47:21;;;;;;;6.63;3.80;;;22.40;48.10;;;;;;4955564;29;20484;-73
2022/04/28 05:49:48;;;;;;;5.03;3.47;;;22.30;48.00;;;;;;4953274;28;20061;-73
2022/04/28 05:52:14;;;;;;;5.70;3.50;;;22.40;48.10;;;;;;4954151;29;20027;-73
2022/04/28 05:54:40;;;;;;;8.00;3.40;;;22.40;48.10;;;;;;4954035;29;20361;-73
2022/04/28 05:57:07;;;;;;;5.25;3.28;;;22.40;48.10;;;;;;4954339;29;20027;-73
2022/04/28 05:59:34;;;;;;;5.88;3.50;;;22.40;48.10;;;;;;4938375;29;20106;-73
2022/04/28 06:02:18;;;;;;;5.65;3.53;;;22.40;48.00;;;;;;4955339;28;20523;-73
2022/04/28 06:04:45;;;;;;;7.07;3.85;;;22.40;48.10;;;;;;4954124;29;20077;-73
2022/04/28 06:07:11;;;;;;;7.25;3.55;;;22.40;48.10;;;;;;4954368;29;20226;-73
2022/04/28 06:09:42;;;;;;;6.28;3.92;;;22.40;48.10;;;;;;4954257;29;20138;-73
2022/04/28 06:12:08;;;;;;;6.70;3.50;;;22.40;48.10;;;;;;4953902;29;20551;-73
2022/04/28 06:14:54;;;;;;;7.60;3.65;;;22.40;48.10;;;;;;4953983;29;20031;-73
2022/04/28 06:17:34;;;;;;;4.95;3.30;;;22.40;48.20;;;;;;4954013;29;20079;-73
2022/04/28 06:20:00;;;;;;;7.40;3.72;;;22.40;48.10;;;;;;4953808;29;20024;-73
2022/04/28 06:22:46;;;;;;;5.20;3.20;;;22.40;48.10;;;;;;4954887;29;20019;-73
2022/04/28 06:25:13;;;;;;;6.10;3.88;;;22.40;48.10;;;;;;4953890;29;20118;-73
2022/04/28 06:27:40;;;;;;;5.55;3.42;;;22.40;48.10;;;;;;4954102;29;20034;-72
2022/04/28 06:30:07;;;;;;;5.88;3.50;;;22.40;48.20;;;;;;4953726;29;20031;-72
2022/04/28 06:32:32;;;;;;;5.32;3.50;;;22.40;48.20;;;;;;4953661;29;20039;-73
2022/04/28 06:35:34;;;;;;;6.32;4.05;;;22.30;48.10;;;;;;4944169;29;20049;-71
2022/04/28 06:38:01;;;;;;;5.53;3.58;;;22.30;48.10;;;;;;4953362;29;20067;-72
2022/04/28 06:40:27;;;;;;;5.47;3.53;;;22.30;48.20;;;;;;4953478;29;20039;-73
2022/04/28 06:42:53;;;;;;;6.80;3.30;;;22.40;48.20;;;;;;4953430;29;20033;-72
2022/04/28 06:45:24;;;;;;;6.57;3.70;;;22.40;48.10;;;;;;4953669;29;20031;-72
2022/04/28 06:48:09;;;;;;;5.00;3.30;;;22.40;48.20;;;;;;4954874;28;20023;-73
2022/04/28 06:50:37;;;;;;;5.95;3.45;;;22.40;48.20;;;;;;4953415;29;20062;-73
2022/04/28 06:53:21;;;;;;;5.45;3.30;;;22.40;48.20;;;;;;4954568;28;20023;-72
2022/04/28 06:55:51;;;;;;;5.68;3.50;;;22.40;48.10;;;;;;4953163;29;20078;-73
2022/04/28 06:58:17;;;;;;;6.22;3.38;;;22.40;48.10;;;;;;4937351;29;20070;-73
2022/04/28 07:00:43;;;;;;;6.68;3.70;;;22.40;48.10;;;;;;4952946;28;20122;-72
2022/04/28 07:03:10;;;;;;;6.30;3.55;;;22.40;48.00;;;;;;4952888;29;20601;-73
2022/04/28 07:05:38;;;;;;;5.57;3.20;;;22.40;48.10;;;;;;4953191;29;20031;-73
2022/04/28 07:08:06;;;;;;;;;;;22.40;48.10;;;;;;4953648;29;20038;-73
2022/04/28 07:10:37;;;;;;;5.65;3.58;;;22.40;48.10;;;;;;4952833;29;19914;-73
2022/04/28 07:13:03;;;;;;;5.53;3.50;;;22.40;48.10;;;;;;4952603;29;20519;-73
2022/04/28 07:15:47;;;;;;;6.30;3.50;;;22.40;48.10;;;;;;4954071;28;20139;-73
2022/04/28 07:18:39;;;;;;;7.15;3.97;;;22.40;48.10;;;;;;4945634;28;20547;-72
2022/04/28 07:21:06;;;;;;;6.03;3.63;;;22.40;48.10;;;;;;4952492;29;20530;-73
2022/04/28 07:23:32;;;;;;;7.75;3.50;;;22.40;48.10;;;;;;4952337;29;20070;-73
2022/04/28 07:25:58;;;;;;;5.80;3.70;;;22.40;48.10;;;;;;4953827;28;20038;-73
2022/04/28 07:28:24;;;;;;;5.85;3.50;;;22.40;48.10;;;;;;4952906;29;20023;-72
2022/04/28 07:31:03;;;;;;;5.63;3.45;;;22.40;48.20;;;;;;4953893;29;20027;-73
2022/04/28 07:33:47;;;;;;;7.32;3.67;;;22.40;48.10;;;;;;4953804;29;20029;-73
2022/04/28 07:36:42;;;;;;;5.70;3.25;;;22.40;48.10;;;;;;4934829;29;20043;-73
2022/04/28 07:39:26;;;;;;;6.50;3.47;;;22.40;48.10;;;;;;4953672;29;20027;-73
2022/04/28 07:42:21;;;;;;;5.28;3.13;;;22.40;48.10;;;;;;4948901;29;20495;-73
2022/04/28 07:44:48;;;;;;;7.57;3.78;;;22.40;48.10;;;;;;4936224;29;20404;-73
2022/04/28 07:47:14;;;;;;;5.63;3.42;;;22.40;48.20;;;;;;4953484;29;20027;-73
2022/04/28 07:49:56;;;;;;;5.47;3.50;;;22.40;48.30;;;;;;4938262;29;20035;-73
2022/04/28 07:52:22;;;;;;;5.45;3.40;;;22.40;48.30;;;;;;4952256;29;20031;-73
2022/04/28 07:54:49;;;;;;;5.65;3.65;;;22.40;48.30;;;;;;4952019;29;20038;-73
2022/04/28 07:57:22;;;;;;;5.35;3.20;;;22.50;48.30;;;;;;4952284;29;20067;-73
2022/04/28 07:59:49;;;;;;;4.65;3.10;;;22.40;48.30;;;;;;4952266;29;20058;-73
2022/04/28 08:02:17;;;;;;;7.13;3.90;;;22.40;48.20;;;;;;4952261;29;20121;-73
2022/04/28 08:04:46;;;;;;;6.25;3.28;;;22.50;48.20;;;;;;4951756;29;20129;-73
2022/04/28 08:07:13;;;;;;;5.88;3.60;;;22.50;48.30;;;;;;4952011;29;20039;-73
2022/04/28 08:09:43;;;;;;;;;;;22.40;48.20;;;;;;4952791;29;20336;-73
2022/04/28 08:12:13;;;;;;;5.00;3.00;;;22.50;48.30;;;;;;4951603;28;19911;-73
2022/04/28 08:14:39;;;;;;;5.10;3.33;;;22.50;48.30;;;;;;4951465;29;20403;-72
2022/04/28 08:17:07;;;;;;;5.35;3.53;;;22.50;48.30;;;;;;4952123;29;20073;-73
2022/04/28 08:19:34;;;;;;;5.03;3.10;;;22.50;48.30;;;;;;4952094;29;20031;-73
2022/04/28 08:22:07;;;;;;;5.68;3.33;;;22.50;48.40;;;;;;4937100;29;20110;-73
2022/04/28 08:24:35;;;;;;;5.43;3.10;;;22.50;48.40;;;;;;4951740;29;20432;-73
2022/04/28 08:27:02;;;;;;;4.90;3.45;;;22.50;48.50;;;;;;4951687;29;20032;-73
2022/04/28 08:29:28;;;;;;;5.07;3.20;;;22.50;48.50;;;;;;4951800;29;20023;-73
2022/04/28 08:31:59;;;;;;;6.03;3.47;;;22.50;48.50;;;;;;4951852;29;20388;-73
2022/04/28 08:34:26;;;;;;;4.88;2.88;;;22.50;48.50;;;;;;4951592;29;20393;-73
2022/04/28 08:36:53;;;;;;;5.55;3.10;;;22.50;48.50;;;;;;4952626;28;20046;-73
2022/04/28 08:39:21;;;;;;;4.45;3.00;;;22.50;48.50;;;;;;4951731;29;20112;-73
2022/04/28 08:41:47;;;;;;;5.10;3.30;;;22.60;48.60;;;;;;4951819;29;20031;-73
2022/04/28 08:44:21;;;;;;;6.30;3.15;;;22.60;48.60;;;;;;4952588;28;20035;-73
2022/04/28 08:46:53;;;;;;;4.32;2.90;;;22.60;48.60;;;;;;4951476;29;20035;-73
2022/04/28 08:49:27;;;;;;;5.65;3.33;;;22.50;48.60;;;;;;4952605;28;20034;-73
2022/04/28 08:52:14;;;;;;;5.93;3.22;;;22.60;48.70;;;;;;4952587;29;20444;-73
2022/04/28 08:54:40;;;;;;;4.55;3.00;;;22.60;48.70;;;;;;4951178;29;20023;-73
2022/04/28 08:57:06;;;;;;;5.82;3.47;;;22.60;48.70;;;;;;4951686;29;20035;-73
2022/04/28 08:59:32;;;;;;;4.88;2.92;;;22.60;48.70;;;;;;4951501;29;20038;-73
2022/04/28 09:01:58;;;;;;;5.20;3.20;;;22.60;48.70;;;;;;4935586;29;20053;-73
2022/04/28 09:04:50;;;;;;;4.80;3.03;;;22.60;48.70;;;;;;4952432;29;20114;-73
2022/04/28 09:07:54;;;;;;;5.28;3.08;;;22.60;48.70;;;;;;4952844;29;20067;-73
2022/04/28 09:11:00;;;;;;;5.03;3.05;;;22.60;48.70;;;;;;4952457;29;20083;-73
2022/04/28 09:14:09;;;;;;;5.75;3.10;;;22.60;48.70;;;;;;4952623;28;20028;-73
2022/04/28 09:16:49;;;;;;;4.80;3.08;;;22.60;48.70;;;;;;4951553;29;20035;-73
2022/04/28 09:19:24;;;;;;;5.30;3.28;;;22.60;48.70;;;;;;4951449;29;20035;-73
2022/04/28 09:21:55;;;;;;;4.90;3.10;;;22.60;48.80;;;;;;4935028;29;20061;-73
2022/04/28 09:24:22;;;;;;;4.95;3.00;;;22.60;48.90;;;;;;4937051;29;20046;-73
2022/04/28 09:26:50;;;;;;;5.80;3.25;;;22.60;48.90;;;;;;4954818;29;20038;-73
2022/04/28 09:29:18;;;;;;;5.38;3.08;;;22.60;48.80;;;;;;4955149;29;20050;-73
2022/04/28 09:31:45;;;;;;;5.57;3.28;;;22.60;48.80;;;;;;4954685;29;20108;-73
2022/04/28 09:34:29;;;;;;;5.55;3.55;;;22.60;48.80;;;;;;4954362;29;20106;-73
2022/04/28 09:37:20;;;;;;;4.78;2.92;;;22.60;48.80;;;;;;4955924;28;20106;-73
2022/04/28 09:42:41;;;;;;;5.35;3.20;;;22.60;48.90;;;;;;4955338;29;20130;-73
2022/04/28 09:45:20;;;;;;;6.30;2.70;;;22.50;48.80;;;;;;4939234;29;20134;-73
2022/04/28 09:48:01;;;;;;;4.80;2.85;;;22.50;48.80;;;;;;4954894;29;20039;-73
2022/04/28 09:50:31;;;;;;;4.68;2.75;;;22.60;48.80;;;;;;4954778;29;20083;-73
2022/04/28 09:53:31;;;;;;;4.97;2.88;;;22.60;48.80;;;;;;4943588;29;20031;-73
2022/04/28 09:56:16;;;;;;;3.90;2.38;;;22.60;48.80;;;;;;4956139;29;20031;-74
2022/04/28 09:59:01;;;;;;;4.45;2.70;;;22.60;48.80;;;;;;4955754;29;20531;-75
2022/04/28 10:01:31;;;;;;;4.70;2.70;;;22.60;48.80;;;;;;4954589;29;20027;-74
2022/04/28 10:03:58;;;;;;;4.22;2.80;;;22.60;48.80;;;;;;4955754;29;20091;-75
2022/04/28 10:06:38;;;;;;;5.57;3.00;;;22.60;48.80;;;;;;4940042;29;20046;-74
2022/04/28 10:09:17;;;;;;;7.53;3.05;;;22.60;48.80;;;;;;4955687;29;20027;-74
2022/04/28 10:11:49;;;;;;;4.18;2.92;;;22.60;48.70;;;;;;4953379;29;20035;-74
2022/04/28 10:14:17;;;;;;;4.47;2.60;;;22.60;48.70;;;;;;4953560;29;20043;-74
2022/04/28 10:16:47;;;;;;;4.88;2.97;;;22.60;48.80;;;;;;4953607;29;20558;-74
2022/04/28 10:19:21;;;;;;;4.50;2.80;;;22.60;48.80;;;;;;4938324;29;20081;-74
2022/04/28 10:21:58;;;;;;;3.95;2.70;;;22.60;48.80;;;;;;4937575;29;20043;-74
2022/04/28 10:33:08;;;;;;;6.13;2.58;;;22.60;48.80;;;;;;4954843;28;20563;-74
2022/04/28 10:35:36;;;;;;;4.05;2.40;;;22.60;48.80;;;;;;4953217;28;20023;-74
2022/04/28 10:38:22;;;;;;;4.07;2.63;;;22.50;48.80;;;;;;4955260;29;20525;-74
2022/04/28 10:41:05;;;;;;;5.40;2.83;;;22.60;48.90;;;;;;4954594;29;20035;-74
2022/04/28 10:43:33;;;;;;;4.53;2.60;;;22.50;48.80;;;;;;4954774;28;20111;-74
2022/04/28 10:46:08;;;;;;;5.90;2.88;;;22.50;48.80;;;;;;4954662;28;20066;-74
2022/04/28 10:48:42;;;;;;;4.35;2.88;;;22.50;48.80;;;;;;4954899;28;20102;-74
2022/04/28 10:51:30;;;;;;;4.25;2.70;;;22.50;48.80;;;;;;4953124;29;20038;-74
2022/04/28 10:54:02;;;;;;;4.70;2.55;;;22.50;48.70;;;;;;4954428;29;20071;-74
2022/04/28 10:56:30;;;;;;;4.47;2.63;;;22.60;48.80;;;;;;4954314;28;20031;-74
2022/04/28 10:59:00;;;;;;;4.75;2.70;;;22.60;48.80;;;;;;4954624;28;20082;-74
2022/04/28 11:01:27;;;;;;;4.80;2.55;;;22.60;48.80;;;;;;4954919;28;20055;-74
2022/04/28 11:04:03;;;;;;;5.65;2.90;;;22.60;48.80;;;;;;4954190;29;20058;-74
2022/04/28 11:06:36;;;;;;;4.18;2.60;;;22.60;48.80;;;;;;4953801;29;20043;-74
2022/04/28 11:09:04;;;;;;;5.65;2.78;;;22.60;48.80;;;;;;4953147;29;20476;-74
2022/04/28 11:11:47;;;;;;;4.97;2.67;;;22.60;48.80;;;;;;4953878;28;20032;-74
2022/04/28 11:14:14;;;;;;;4.20;2.67;;;22.60;48.80;;;;;;4953848;28;20034;-74
2022/04/28 11:16:41;;;;;;;3.80;2.60;;;22.60;48.80;;;;;;4952764;29;20031;-74
2022/04/28 11:19:08;;;;;;;3.97;2.55;;;22.60;48.80;;;;;;4953249;29;20031;-74
2022/04/28 11:21:38;;;;;;;3.83;2.60;;;22.60;48.70;;;;;;4953664;28;20031;-74
2022/04/28 11:24:04;;;;;;;3.97;2.58;;;22.60;48.70;;;;;;4952680;29;20489;-74
2022/04/28 11:26:49;;;;;;;3.90;2.70;;;22.60;48.70;;;;;;4953947;28;20109;-74
2022/04/28 11:29:39;;;;;;;4.65;2.85;;;22.60;48.70;;;;;;4953862;29;20040;-74
2022/04/28 11:32:08;;;;;;;3.58;2.17;;;22.60;48.70;;;;;;4953933;29;20027;-74
2022/04/28 11:34:35;;;;;;;3.60;2.38;;;22.60;48.70;;;;;;4953725;28;20031;-73
2022/04/28 11:37:22;;;;;;;4.30;2.55;;;22.60;48.70;;;;;;4953503;28;20094;-73
2022/04/28 11:39:50;;;;;;;3.75;2.38;;;22.60;48.70;;;;;;4954128;28;20039;-73
2022/04/28 11:42:16;;;;;;;6.53;2.70;;;22.60;48.70;;;;;;4953734;28;20485;-73
2022/04/28 11:44:56;;;;;;;4.72;2.65;;;22.60;48.70;;;;;;4953816;28;20110;-73
2022/04/28 11:47:23;;;;;;;;;;;22.60;48.70;;;;;;4953663;28;20086;-73
2022/04/28 11:49:55;;;;;;;3.58;2.55;;;22.60;48.70;;;;;;4953819;28;20418;-73
2022/04/28 11:52:25;;;;;;;3.88;2.45;;;22.60;48.80;;;;;;4952445;29;20027;-74
2022/04/28 11:55:03;;;;;;;4.32;2.60;;;22.60;48.80;;;;;;4953545;28;20042;-73
2022/04/28 11:57:29;;;;;;;4.22;2.35;;;22.60;48.80;;;;;;4952261;29;20126;-74
2022/04/28 11:59:55;;;;;;;3.85;2.45;;;22.60;48.70;;;;;;4953860;28;20223;-73
2022/04/28 12:02:26;;;;;;;4.38;2.58;;;22.60;48.80;;;;;;4954131;28;20558;-73
2022/04/28 12:04:52;;;;;;;4.00;2.70;;;22.60;48.80;;;;;;4953918;28;20055;-73
2022/04/28 12:07:19;;;;;;;3.83;2.55;;;22.60;48.80;;;;;;4953478;28;20054;-73
2022/04/28 12:15:15;;;;;;;3.70;2.17;;;22.60;48.80;;;;;;4953478;28;20030;-74
2022/04/28 12:20:38;;;;;;;3.95;2.40;;;22.60;48.80;;;;;;4953026;29;20031;-75
2022/04/28 12:23:04;;;;;;;3.53;2.45;;;22.60;48.80;;;;;;4952533;29;20034;-74
2022/04/28 12:25:33;;;;;;;5.05;2.67;;;22.60;48.80;;;;;;4953148;29;20114;-74
2022/04/28 12:27:59;;;;;;;3.55;2.42;;;22.60;48.80;;;;;;4951792;29;20392;-74
2022/04/28 12:30:25;;;;;;;4.75;2.65;;;22.60;48.80;;;;;;4953175;28;20027;-75
2022/04/28 12:32:54;;;;;;;3.70;2.42;;;22.60;48.70;;;;;;4952723;29;20192;-74
2022/04/28 12:35:22;;;;;;;4.43;2.30;;;22.60;48.70;;;;;;4953295;29;20047;-74
2022/04/28 12:37:53;;;;;;;4.18;2.42;;;22.60;48.70;;;;;;4952775;29;20035;-74
2022/04/28 12:40:19;;;;;;;3.45;2.10;;;22.60;48.80;;;;;;4953061;29;20062;-73
2022/04/28 12:42:48;;;;;;;3.08;2.10;;;22.60;48.70;;;;;;4951390;29;20058;-73
2022/04/28 12:45:16;;;;;;;3.72;2.13;;;22.60;48.80;;;;;;4952966;28;20122;-74
2022/04/28 12:47:43;;;;;;;4.47;2.40;;;22.60;48.80;;;;;;4952399;28;20526;-74
2022/04/28 12:50:25;;;;;;;3.97;2.40;;;22.60;48.80;;;;;;4952712;28;20031;-74
2022/04/28 12:52:51;;;;;;;3.85;2.42;;;22.60;48.80;;;;;;4952582;28;20515;-74
2022/04/28 12:55:22;;;;;;;3.42;2.10;;;22.60;48.80;;;;;;4952928;29;20543;-73
2022/04/28 12:57:49;;;;;;;4.70;2.47;;;22.60;48.80;;;;;;4952674;29;20027;-73
2022/04/28 13:00:18;;;;;;;3.40;2.20;;;22.60;48.80;;;;;;4955529;28;20539;-73
2022/04/28 13:02:51;;;;;;;4.00;2.50;;;22.60;48.80;;;;;;4955128;29;20106;-74
2022/04/28 13:05:19;;;;;;;3.28;2.10;;;22.60;48.80;;;;;;4956605;28;20035;-74
2022/04/28 13:07:46;;;;;;;3.40;2.30;;;22.60;48.80;;;;;;4956186;29;20035;-74
2022/04/28 13:10:13;;;;;;;3.17;2.15;;;22.60;48.80;;;;;;4956718;28;20123;-74
2022/04/28 13:12:39;;;;;;;4.18;2.38;;;22.60;48.80;;;;;;4956233;28;20090;-73
2022/04/28 13:15:06;;;;;;;4.15;2.38;;;22.60;48.80;;;;;;4956230;29;20032;-73
2022/04/28 13:17:32;;;;;;;2.72;1.90;;;22.50;48.80;;;;;;4956243;29;20366;-73
2022/04/28 13:19:58;;;;;;;3.28;2.10;;;22.60;49.40;;;;;;4955123;29;20047;-74
2022/04/28 13:22:24;;;;;;;3.10;2.20;;;22.60;48.90;;;;;;4956030;28;20453;-73
2022/04/28 13:24:50;;;;;;;4.93;2.30;;;22.50;48.80;;;;;;4955939;28;20429;-74
2022/04/28 13:27:16;;;;;;;3.15;2.20;;;22.60;48.80;;;;;;4954795;29;20613;-73
2022/04/28 13:29:42;;;;;;;3.22;2.15;;;22.60;48.80;;;;;;4954774;29;20023;-73
2022/04/28 13:32:08;;;;;;;3.58;2.05;;;22.60;48.80;;;;;;4955803;29;20432;-74
2022/04/28 13:34:35;;;;;;;2.88;2.03;;;22.60;48.80;;;;;;4954753;29;20035;-73
2022/04/28 13:37:02;;;;;;;4.72;2.47;;;22.60;48.80;;;;;;4956076;28;20392;-73
2022/04/28 13:39:28;;;;;;;3.55;2.25;;;22.60;48.80;;;;;;4956053;28;20431;-74
2022/04/28 13:41:54;;;;;;;4.28;2.35;;;22.60;48.80;;;;;;4955768;28;20023;-73